sensor_id;sensor_type;location;lat;lon;timestamp;temperature;humidity
40077;DHT22;25777;47.824;18.982;2024-03-02T00:00:32;9.50;99.90
40077;DHT22;25777;47.824;18.982;2024-03-02T00:02:59;9.50;99.90
40077;DHT22;25777;47.824;18.982;2024-03-02T00:05:27;9.40;99.90
40077;DHT22;25777;47.824;18.982;2024-03-02T00:07:55;9.40;99.90
40077;DHT22;25777;47.824;18.982;2024-03-02T00:10:24;9.40;99.90
40077;DHT22;25777;47.824;18.982;2024-03-02T00:12:56;9.30;99.90
40077;DHT22;25777;47.824;18.982;2024-03-02T00:18:00;9.30;99.90
40077;DHT22;25777;47.824;18.982;2024-03-02T00:20:28;9.20;99.90
40077;DHT22;25777;47.824;18.982;2024-03-02T00:23:00;9.20;99.90
40077;DHT22;25777;47.824;18.982;2024-03-02T00:25:40;9.20;99.90
40077;DHT22;25777;47.824;18.982;2024-03-02T00:28:53;9.10;99.90
40077;DHT22;25777;47.824;18.982;2024-03-02T00:30:55;9.10;99.90
40077;DHT22;25777;47.824;18.982;2024-03-02T00:33:23;9.10;99.90
40077;DHT22;25777;47.824;18.982;2024-03-02T00:35:51;9.10;99.90
40077;DHT22;25777;47.824;18.982;2024-03-02T00:38:19;9.10;99.90
40077;DHT22;25777;47.824;18.982;2024-03-02T00:40:47;9.30;99.90
40077;DHT22;25777;47.824;18.982;2024-03-02T00:45:51;8.40;99.90
40077;DHT22;25777;47.824;18.982;2024-03-02T00:48:19;8.90;99.90
40077;DHT22;25777;47.824;18.982;2024-03-02T00:50:49;8.90;99.90
40077;DHT22;25777;47.824;18.982;2024-03-02T00:53:17;8.90;99.90
40077;DHT22;25777;47.824;18.982;2024-03-02T00:55:48;8.90;99.90
40077;DHT22;25777;47.824;18.982;2024-03-02T00:58:15;8.80;99.90
40077;DHT22;25777;47.824;18.982;2024-03-02T01:00:42;8.80;99.90
40077;DHT22;25777;47.824;18.982;2024-03-02T01:03:09;8.40;99.90
40077;DHT22;25777;47.824;18.982;2024-03-02T01:05:42;8.80;99.90
40077;DHT22;25777;47.824;18.982;2024-03-02T01:08:10;8.80;99.90
40077;DHT22;25777;47.824;18.982;2024-03-02T01:10:38;8.70;99.90
40077;DHT22;25777;47.824;18.982;2024-03-02T01:13:05;8.80;99.90
40077;DHT22;25777;47.824;18.982;2024-03-02T01:15:33;8.70;99.90
40077;DHT22;25777;47.824;18.982;2024-03-02T01:18:00;8.70;99.90
40077;DHT22;25777;47.824;18.982;2024-03-02T01:20:28;8.70;99.90
40077;DHT22;25777;47.824;18.982;2024-03-02T01:22:56;8.70;99.90
40077;DHT22;25777;47.824;18.982;2024-03-02T01:25:23;8.70;99.90
40077;DHT22;25777;47.824;18.982;2024-03-02T01:27:51;8.70;99.90
40077;DHT22;25777;47.824;18.982;2024-03-02T01:30:18;8.70;99.90
40077;DHT22;25777;47.824;18.982;2024-03-02T01:32:48;8.70;99.90
40077;DHT22;25777;47.824;18.982;2024-03-02T01:35:16;8.70;99.90
40077;DHT22;25777;47.824;18.982;2024-03-02T01:37:43;8.70;99.90
40077;DHT22;25777;47.824;18.982;2024-03-02T01:40:10;8.70;99.90
40077;DHT22;25777;47.824;18.982;2024-03-02T01:42:38;8.50;99.90
40077;DHT22;25777;47.824;18.982;2024-03-02T01:45:06;8.70;99.90
40077;DHT22;25777;47.824;18.982;2024-03-02T01:47:34;8.60;99.90
40077;DHT22;25777;47.824;18.982;2024-03-02T01:50:01;8.60;99.90
40077;DHT22;25777;47.824;18.982;2024-03-02T01:52:29;8.60;99.90
40077;DHT22;25777;47.824;18.982;2024-03-02T01:54:56;8.60;99.90
40077;DHT22;25777;47.824;18.982;2024-03-02T01:57:23;8.60;99.90
40077;DHT22;25777;47.824;18.982;2024-03-02T01:59:51;8.60;99.90
40077;DHT22;25777;47.824;18.982;2024-03-02T02:02:19;8.60;99.90
40077;DHT22;25777;47.824;18.982;2024-03-02T02:04:46;8.60;99.90
40077;DHT22;25777;47.824;18.982;2024-03-02T02:07:14;8.60;99.90
40077;DHT22;25777;47.824;18.982;2024-03-02T02:09:42;8.60;99.90
40077;DHT22;25777;47.824;18.982;2024-03-02T02:12:10;8.60;99.90
40077;DHT22;25777;47.824;18.982;2024-03-02T02:14:37;8.60;99.90
40077;DHT22;25777;47.824;18.982;2024-03-02T02:17:06;8.30;99.90
40077;DHT22;25777;47.824;18.982;2024-03-02T02:22:22;8.60;99.90
40077;DHT22;25777;47.824;18.982;2024-03-02T02:24:50;8.60;99.90
40077;DHT22;25777;47.824;18.982;2024-03-02T02:27:18;8.50;99.90
40077;DHT22;25777;47.824;18.982;2024-03-02T02:29:45;8.50;99.90
40077;DHT22;25777;47.824;18.982;2024-03-02T02:32:13;8.50;99.90
40077;DHT22;25777;47.824;18.982;2024-03-02T02:34:41;8.50;99.90
40077;DHT22;25777;47.824;18.982;2024-03-02T02:37:08;8.60;99.90
40077;DHT22;25777;47.824;18.982;2024-03-02T02:39:35;8.60;99.90
40077;DHT22;25777;47.824;18.982;2024-03-02T02:42:03;8.50;99.90
40077;DHT22;25777;47.824;18.982;2024-03-02T02:44:30;8.50;99.90
40077;DHT22;25777;47.824;18.982;2024-03-02T02:46:58;8.50;99.90
40077;DHT22;25777;47.824;18.982;2024-03-02T02:49:26;8.70;99.90
40077;DHT22;25777;47.824;18.982;2024-03-02T02:51:53;8.60;99.90
40077;DHT22;25777;47.824;18.982;2024-03-02T02:54:21;8.60;99.90
40077;DHT22;25777;47.824;18.982;2024-03-02T02:56:49;8.70;99.90
40077;DHT22;25777;47.824;18.982;2024-03-02T02:59:17;8.80;99.90
40077;DHT22;25777;47.824;18.982;2024-03-02T03:01:44;8.70;99.90
40077;DHT22;25777;47.824;18.982;2024-03-02T03:04:12;8.70;99.90
40077;DHT22;25777;47.824;18.982;2024-03-02T03:06:39;8.80;99.90
40077;DHT22;25777;47.824;18.982;2024-03-02T03:09:07;8.80;99.90
40077;DHT22;25777;47.824;18.982;2024-03-02T03:11:37;8.80;99.90
40077;DHT22;25777;47.824;18.982;2024-03-02T03:14:04;8.80;99.90
40077;DHT22;25777;47.824;18.982;2024-03-02T03:16:32;8.80;99.90
40077;DHT22;25777;47.824;18.982;2024-03-02T03:18:59;8.70;99.90
40077;DHT22;25777;47.824;18.982;2024-03-02T03:21:27;8.70;99.90
40077;DHT22;25777;47.824;18.982;2024-03-02T03:23:54;8.70;99.90
40077;DHT22;25777;47.824;18.982;2024-03-02T03:26:22;8.30;99.90
40077;DHT22;25777;47.824;18.982;2024-03-02T03:28:50;8.70;99.90
40077;DHT22;25777;47.824;18.982;2024-03-02T03:31:17;8.70;99.90
40077;DHT22;25777;47.824;18.982;2024-03-02T03:33:45;8.70;99.90
40077;DHT22;25777;47.824;18.982;2024-03-02T03:36:12;8.80;99.90
40077;DHT22;25777;47.824;18.982;2024-03-02T03:38:39;8.80;99.90
40077;DHT22;25777;47.824;18.982;2024-03-02T03:41:06;8.70;99.90
40077;DHT22;25777;47.824;18.982;2024-03-02T03:43:34;8.90;99.90
40077;DHT22;25777;47.824;18.982;2024-03-02T03:46:02;8.70;99.90
40077;DHT22;25777;47.824;18.982;2024-03-02T03:48:30;8.70;99.90
40077;DHT22;25777;47.824;18.982;2024-03-02T03:50:58;9.00;99.90
40077;DHT22;25777;47.824;18.982;2024-03-02T03:53:25;8.60;99.90
40077;DHT22;25777;47.824;18.982;2024-03-02T03:55:53;8.60;99.90
40077;DHT22;25777;47.824;18.982;2024-03-02T03:58:21;8.70;99.90
40077;DHT22;25777;47.824;18.982;2024-03-02T04:00:50;8.80;99.90
40077;DHT22;25777;47.824;18.982;2024-03-02T04:03:17;8.80;99.90
40077;DHT22;25777;47.824;18.982;2024-03-02T04:05:44;8.80;99.90
40077;DHT22;25777;47.824;18.982;2024-03-02T04:08:11;8.70;99.90
40077;DHT22;25777;47.824;18.982;2024-03-02T04:10:38;8.70;99.90
40077;DHT22;25777;47.824;18.982;2024-03-02T04:13:06;8.70;99.90
40077;DHT22;25777;47.824;18.982;2024-03-02T04:15:34;8.70;99.90
40077;DHT22;25777;47.824;18.982;2024-03-02T04:18:02;8.70;99.90
40077;DHT22;25777;47.824;18.982;2024-03-02T04:20:29;8.70;99.90
40077;DHT22;25777;47.824;18.982;2024-03-02T04:22:56;8.00;99.90
40077;DHT22;25777;47.824;18.982;2024-03-02T04:25:23;8.60;99.90
40077;DHT22;25777;47.824;18.982;2024-03-02T04:27:51;8.60;99.90
40077;DHT22;25777;47.824;18.982;2024-03-02T04:30:18;8.60;99.90
40077;DHT22;25777;47.824;18.982;2024-03-02T04:32:46;8.60;99.90
40077;DHT22;25777;47.824;18.982;2024-03-02T04:35:15;8.80;99.90
40077;DHT22;25777;47.824;18.982;2024-03-02T04:37:42;8.90;99.90
40077;DHT22;25777;47.824;18.982;2024-03-02T04:40:10;8.50;99.90
40077;DHT22;25777;47.824;18.982;2024-03-02T04:42:37;8.60;99.90
40077;DHT22;25777;47.824;18.982;2024-03-02T04:45:04;8.60;99.90
40077;DHT22;25777;47.824;18.982;2024-03-02T04:47:31;8.50;99.90
40077;DHT22;25777;47.824;18.982;2024-03-02T04:50:01;8.50;99.90
40077;DHT22;25777;47.824;18.982;2024-03-02T04:52:28;8.60;99.90
40077;DHT22;25777;47.824;18.982;2024-03-02T04:54:55;8.60;99.90
40077;DHT22;25777;47.824;18.982;2024-03-02T04:57:41;8.70;99.90
40077;DHT22;25777;47.824;18.982;2024-03-02T05:00:09;8.70;99.90
40077;DHT22;25777;47.824;18.982;2024-03-02T05:02:36;8.70;99.90
40077;DHT22;25777;47.824;18.982;2024-03-02T05:05:02;8.60;99.90
40077;DHT22;25777;47.824;18.982;2024-03-02T05:07:29;8.60;99.90
40077;DHT22;25777;47.824;18.982;2024-03-02T05:09:58;8.60;99.90
40077;DHT22;25777;47.824;18.982;2024-03-02T05:12:25;8.60;99.90
40077;DHT22;25777;47.824;18.982;2024-03-02T05:15:12;8.60;99.90
40077;DHT22;25777;47.824;18.982;2024-03-02T05:17:41;8.70;99.90
40077;DHT22;25777;47.824;18.982;2024-03-02T05:20:09;8.60;99.90
40077;DHT22;25777;47.824;18.982;2024-03-02T05:22:37;8.60;99.90
40077;DHT22;25777;47.824;18.982;2024-03-02T05:25:04;8.70;99.90
40077;DHT22;25777;47.824;18.982;2024-03-02T05:27:31;8.70;99.90
40077;DHT22;25777;47.824;18.982;2024-03-02T05:30:00;8.70;99.90
40077;DHT22;25777;47.824;18.982;2024-03-02T05:32:27;8.80;99.90
40077;DHT22;25777;47.824;18.982;2024-03-02T05:34:53;8.80;99.90
40077;DHT22;25777;47.824;18.982;2024-03-02T05:37:21;8.70;99.90
40077;DHT22;25777;47.824;18.982;2024-03-02T05:39:48;8.80;99.90
40077;DHT22;25777;47.824;18.982;2024-03-02T05:42:15;8.70;99.90
40077;DHT22;25777;47.824;18.982;2024-03-02T05:44:44;8.80;99.90
40077;DHT22;25777;47.824;18.982;2024-03-02T05:47:11;8.80;99.90
40077;DHT22;25777;47.824;18.982;2024-03-02T05:49:38;8.80;99.90
40077;DHT22;25777;47.824;18.982;2024-03-02T05:52:05;8.80;99.90
40077;DHT22;25777;47.824;18.982;2024-03-02T05:54:33;8.80;99.90
40077;DHT22;25777;47.824;18.982;2024-03-02T05:57:00;8.80;99.90
40077;DHT22;25777;47.824;18.982;2024-03-02T05:59:43;8.80;99.90
40077;DHT22;25777;47.824;18.982;2024-03-02T06:02:10;8.80;99.90
40077;DHT22;25777;47.824;18.982;2024-03-02T06:04:38;8.80;99.90
40077;DHT22;25777;47.824;18.982;2024-03-02T06:07:05;8.60;99.90
40077;DHT22;25777;47.824;18.982;2024-03-02T06:09:32;9.00;99.90
40077;DHT22;25777;47.824;18.982;2024-03-02T06:12:01;8.60;99.90
40077;DHT22;25777;47.824;18.982;2024-03-02T06:14:29;8.70;99.90
40077;DHT22;25777;47.824;18.982;2024-03-02T06:16:56;8.70;99.90
40077;DHT22;25777;47.824;18.982;2024-03-02T06:19:23;8.80;99.90
40077;DHT22;25777;47.824;18.982;2024-03-02T06:21:50;8.70;99.90
40077;DHT22;25777;47.824;18.982;2024-03-02T06:24:16;8.80;99.90
40077;DHT22;25777;47.824;18.982;2024-03-02T06:26:44;8.80;99.90
40077;DHT22;25777;47.824;18.982;2024-03-02T06:29:12;8.70;99.90
40077;DHT22;25777;47.824;18.982;2024-03-02T06:31:39;8.80;99.90
40077;DHT22;25777;47.824;18.982;2024-03-02T06:34:07;8.80;99.90
40077;DHT22;25777;47.824;18.982;2024-03-02T06:36:34;8.70;99.90
40077;DHT22;25777;47.824;18.982;2024-03-02T06:39:02;8.70;99.90
40077;DHT22;25777;47.824;18.982;2024-03-02T06:41:30;8.70;99.90
40077;DHT22;25777;47.824;18.982;2024-03-02T06:43:57;8.60;99.90
40077;DHT22;25777;47.824;18.982;2024-03-02T06:46:26;8.50;99.90
40077;DHT22;25777;47.824;18.982;2024-03-02T06:48:53;8.50;99.90
40077;DHT22;25777;47.824;18.982;2024-03-02T06:51:21;8.00;99.90
40077;DHT22;25777;47.824;18.982;2024-03-02T06:53:48;8.60;99.90
40077;DHT22;25777;47.824;18.982;2024-03-02T06:56:16;8.70;99.90
40077;DHT22;25777;47.824;18.982;2024-03-02T06:58:44;8.70;99.90
40077;DHT22;25777;47.824;18.982;2024-03-02T07:01:11;8.70;99.90
40077;DHT22;25777;47.824;18.982;2024-03-02T07:03:39;8.70;99.90
40077;DHT22;25777;47.824;18.982;2024-03-02T07:06:06;8.50;99.90
40077;DHT22;25777;47.824;18.982;2024-03-02T07:08:34;9.40;99.90
40077;DHT22;25777;47.824;18.982;2024-03-02T07:11:01;8.70;99.90
40077;DHT22;25777;47.824;18.982;2024-03-02T07:13:29;8.70;99.90
40077;DHT22;25777;47.824;18.982;2024-03-02T07:15:56;8.70;99.90
40077;DHT22;25777;47.824;18.982;2024-03-02T07:18:43;8.80;99.90
40077;DHT22;25777;47.824;18.982;2024-03-02T07:21:17;9.10;99.90
40077;DHT22;25777;47.824;18.982;2024-03-02T07:23:45;8.90;99.90
40077;DHT22;25777;47.824;18.982;2024-03-02T07:26:12;8.40;99.90
40077;DHT22;25777;47.824;18.982;2024-03-02T07:28:41;8.50;99.90
40077;DHT22;25777;47.824;18.982;2024-03-02T07:31:10;8.50;99.90
40077;DHT22;25777;47.824;18.982;2024-03-02T07:33:37;8.70;99.90
40077;DHT22;25777;47.824;18.982;2024-03-02T07:36:05;8.70;99.90
40077;DHT22;25777;47.824;18.982;2024-03-02T07:38:33;8.70;99.90
40077;DHT22;25777;47.824;18.982;2024-03-02T07:41:01;8.70;99.90
40077;DHT22;25777;47.824;18.982;2024-03-02T07:43:30;8.80;99.90
40077;DHT22;25777;47.824;18.982;2024-03-02T07:46:01;8.90;99.90
40077;DHT22;25777;47.824;18.982;2024-03-02T07:48:29;8.80;99.90
40077;DHT22;25777;47.824;18.982;2024-03-02T07:50:57;8.90;99.90
40077;DHT22;25777;47.824;18.982;2024-03-02T07:53:24;8.90;99.90
40077;DHT22;25777;47.824;18.982;2024-03-02T07:55:52;8.90;99.90
40077;DHT22;25777;47.824;18.982;2024-03-02T07:58:20;8.90;99.90
40077;DHT22;25777;47.824;18.982;2024-03-02T08:00:47;9.00;99.90
40077;DHT22;25777;47.824;18.982;2024-03-02T08:03:15;8.80;99.90
40077;DHT22;25777;47.824;18.982;2024-03-02T08:05:42;8.90;99.90
40077;DHT22;25777;47.824;18.982;2024-03-02T08:08:11;8.90;99.90
40077;DHT22;25777;47.824;18.982;2024-03-02T08:10:39;8.10;99.90
40077;DHT22;25777;47.824;18.982;2024-03-02T08:13:07;8.80;99.90
40077;DHT22;25777;47.824;18.982;2024-03-02T08:15:34;8.80;99.90
40077;DHT22;25777;47.824;18.982;2024-03-02T08:18:02;8.90;99.90
40077;DHT22;25777;47.824;18.982;2024-03-02T08:20:30;8.90;99.90
40077;DHT22;25777;47.824;18.982;2024-03-02T08:22:57;8.90;99.90
40077;DHT22;25777;47.824;18.982;2024-03-02T08:25:25;8.90;99.90
40077;DHT22;25777;47.824;18.982;2024-03-02T08:27:53;8.90;99.90
40077;DHT22;25777;47.824;18.982;2024-03-02T08:30:20;8.90;99.90
40077;DHT22;25777;47.824;18.982;2024-03-02T08:32:48;8.80;99.90
40077;DHT22;25777;47.824;18.982;2024-03-02T08:35:16;8.80;99.90
40077;DHT22;25777;47.824;18.982;2024-03-02T08:37:43;8.90;99.90
40077;DHT22;25777;47.824;18.982;2024-03-02T08:40:11;8.90;99.90
40077;DHT22;25777;47.824;18.982;2024-03-02T08:42:39;9.00;99.90
40077;DHT22;25777;47.824;18.982;2024-03-02T08:45:07;9.00;99.90
40077;DHT22;25777;47.824;18.982;2024-03-02T08:47:34;9.00;99.90
40077;DHT22;25777;47.824;18.982;2024-03-02T08:50:02;9.00;99.90
40077;DHT22;25777;47.824;18.982;2024-03-02T08:52:31;8.90;99.90
40077;DHT22;25777;47.824;18.982;2024-03-02T08:54:58;8.90;99.90
40077;DHT22;25777;47.824;18.982;2024-03-02T08:57:26;8.90;99.90
40077;DHT22;25777;47.824;18.982;2024-03-02T08:59:54;8.90;99.90
40077;DHT22;25777;47.824;18.982;2024-03-02T09:02:22;8.90;99.90
40077;DHT22;25777;47.824;18.982;2024-03-02T09:04:49;8.80;99.90
40077;DHT22;25777;47.824;18.982;2024-03-02T09:07:17;8.90;99.90
40077;DHT22;25777;47.824;18.982;2024-03-02T09:09:44;8.80;99.90
40077;DHT22;25777;47.824;18.982;2024-03-02T09:12:12;8.80;99.90
40077;DHT22;25777;47.824;18.982;2024-03-02T09:14:40;8.80;99.90
40077;DHT22;25777;47.824;18.982;2024-03-02T09:17:08;8.90;99.90
40077;DHT22;25777;47.824;18.982;2024-03-02T09:19:37;8.90;99.90
40077;DHT22;25777;47.824;18.982;2024-03-02T09:22:04;9.00;99.90
40077;DHT22;25777;47.824;18.982;2024-03-02T09:24:32;9.00;99.90
40077;DHT22;25777;47.824;18.982;2024-03-02T09:27:03;9.00;99.90
40077;DHT22;25777;47.824;18.982;2024-03-02T09:29:30;9.00;99.90
40077;DHT22;25777;47.824;18.982;2024-03-02T09:31:58;9.00;99.90
40077;DHT22;25777;47.824;18.982;2024-03-02T09:34:26;9.00;99.90
40077;DHT22;25777;47.824;18.982;2024-03-02T09:36:53;8.90;99.90
40077;DHT22;25777;47.824;18.982;2024-03-02T09:39:21;8.90;99.90
40077;DHT22;25777;47.824;18.982;2024-03-02T09:41:49;9.00;99.90
40077;DHT22;25777;47.824;18.982;2024-03-02T09:44:16;9.00;99.90
40077;DHT22;25777;47.824;18.982;2024-03-02T09:46:44;9.00;99.90
40077;DHT22;25777;47.824;18.982;2024-03-02T09:49:16;9.00;99.90
40077;DHT22;25777;47.824;18.982;2024-03-02T09:51:46;9.00;99.90
40077;DHT22;25777;47.824;18.982;2024-03-02T09:54:15;9.10;99.90
40077;DHT22;25777;47.824;18.982;2024-03-02T09:56:43;9.10;99.90
40077;DHT22;25777;47.824;18.982;2024-03-02T09:59:11;9.10;99.90
40077;DHT22;25777;47.824;18.982;2024-03-02T10:01:55;9.20;99.90
40077;DHT22;25777;47.824;18.982;2024-03-02T10:04:24;9.20;99.90
40077;DHT22;25777;47.824;18.982;2024-03-02T10:07:09;9.20;99.90
40077;DHT22;25777;47.824;18.982;2024-03-02T10:09:37;9.20;99.90
40077;DHT22;25777;47.824;18.982;2024-03-02T10:12:05;9.30;99.90
40077;DHT22;25777;47.824;18.982;2024-03-02T10:14:33;9.30;99.90
40077;DHT22;25777;47.824;18.982;2024-03-02T10:17:02;9.30;99.90
40077;DHT22;25777;47.824;18.982;2024-03-02T10:19:30;9.30;99.90
40077;DHT22;25777;47.824;18.982;2024-03-02T10:21:59;9.40;99.90
40077;DHT22;25777;47.824;18.982;2024-03-02T10:24:27;9.40;99.90
40077;DHT22;25777;47.824;18.982;2024-03-02T10:26:54;9.40;99.90
40077;DHT22;25777;47.824;18.982;2024-03-02T10:29:22;9.40;99.90
40077;DHT22;25777;47.824;18.982;2024-03-02T10:31:53;9.40;99.90
40077;DHT22;25777;47.824;18.982;2024-03-02T10:34:22;9.50;99.90
40077;DHT22;25777;47.824;18.982;2024-03-02T10:36:50;9.50;99.90
40077;DHT22;25777;47.824;18.982;2024-03-02T10:39:17;9.50;99.90
40077;DHT22;25777;47.824;18.982;2024-03-02T10:41:45;9.50;99.90
40077;DHT22;25777;47.824;18.982;2024-03-02T10:44:13;9.50;99.90
40077;DHT22;25777;47.824;18.982;2024-03-02T10:46:41;9.50;99.90
40077;DHT22;25777;47.824;18.982;2024-03-02T10:49:10;9.50;99.90
40077;DHT22;25777;47.824;18.982;2024-03-02T10:51:38;9.50;99.90
40077;DHT22;25777;47.824;18.982;2024-03-02T10:54:05;9.60;99.90
40077;DHT22;25777;47.824;18.982;2024-03-02T10:56:33;9.60;99.90
40077;DHT22;25777;47.824;18.982;2024-03-02T10:59:03;9.50;99.90
40077;DHT22;25777;47.824;18.982;2024-03-02T11:01:32;9.50;99.90
40077;DHT22;25777;47.824;18.982;2024-03-02T11:04:02;9.50;99.90
40077;DHT22;25777;47.824;18.982;2024-03-02T11:06:29;9.50;99.90
40077;DHT22;25777;47.824;18.982;2024-03-02T11:09:00;9.50;99.90
40077;DHT22;25777;47.824;18.982;2024-03-02T11:11:29;9.10;99.90
40077;DHT22;25777;47.824;18.982;2024-03-02T11:13:57;9.50;99.90
40077;DHT22;25777;47.824;18.982;2024-03-02T11:16:34;9.80;99.90
40077;DHT22;25777;47.824;18.982;2024-03-02T11:19:06;9.40;99.90
40077;DHT22;25777;47.824;18.982;2024-03-02T11:21:35;9.40;99.90
40077;DHT22;25777;47.824;18.982;2024-03-02T11:24:45;9.40;99.90
40077;DHT22;25777;47.824;18.982;2024-03-02T11:26:50;9.50;99.90
40077;DHT22;25777;47.824;18.982;2024-03-02T11:32:05;9.50;99.90
40077;DHT22;25777;47.824;18.982;2024-03-02T11:34:34;9.50;99.90
40077;DHT22;25777;47.824;18.982;2024-03-02T11:37:02;9.50;99.90
40077;DHT22;25777;47.824;18.982;2024-03-02T11:39:29;9.50;99.90
40077;DHT22;25777;47.824;18.982;2024-03-02T11:41:58;9.50;99.90
40077;DHT22;25777;47.824;18.982;2024-03-02T11:44:27;9.50;99.90
40077;DHT22;25777;47.824;18.982;2024-03-02T11:46:59;9.50;99.90
40077;DHT22;25777;47.824;18.982;2024-03-02T11:52:08;9.50;99.90
40077;DHT22;25777;47.824;18.982;2024-03-02T11:54:37;9.50;99.90
40077;DHT22;25777;47.824;18.982;2024-03-02T11:57:06;9.50;99.90
40077;DHT22;25777;47.824;18.982;2024-03-02T11:59:34;9.50;99.90
40077;DHT22;25777;47.824;18.982;2024-03-02T12:02:01;9.40;99.90
40077;DHT22;25777;47.824;18.982;2024-03-02T12:04:29;9.50;99.90
40077;DHT22;25777;47.824;18.982;2024-03-02T12:06:57;9.50;99.90
40077;DHT22;25777;47.824;18.982;2024-03-02T12:09:27;9.40;99.90
40077;DHT22;25777;47.824;18.982;2024-03-02T12:12:14;9.40;99.90
40077;DHT22;25777;47.824;18.982;2024-03-02T12:14:49;9.50;99.90
40077;DHT22;25777;47.824;18.982;2024-03-02T12:17:18;9.50;99.90
40077;DHT22;25777;47.824;18.982;2024-03-02T12:19:45;9.60;99.90
40077;DHT22;25777;47.824;18.982;2024-03-02T12:22:13;9.60;99.90
40077;DHT22;25777;47.824;18.982;2024-03-02T12:24:42;9.60;99.90
40077;DHT22;25777;47.824;18.982;2024-03-02T12:27:11;9.90;99.90
40077;DHT22;25777;47.824;18.982;2024-03-02T12:29:39;9.60;99.90
40077;DHT22;25777;47.824;18.982;2024-03-02T12:32:07;9.60;99.90
40077;DHT22;25777;47.824;18.982;2024-03-02T12:34:35;9.70;99.90
40077;DHT22;25777;47.824;18.982;2024-03-02T12:37:01;9.70;99.90
40077;DHT22;25777;47.824;18.982;2024-03-02T12:39:29;9.70;99.90
40077;DHT22;25777;47.824;18.982;2024-03-02T12:41:59;9.60;99.90
40077;DHT22;25777;47.824;18.982;2024-03-02T12:44:26;9.60;99.90
40077;DHT22;25777;47.824;18.982;2024-03-02T12:46:54;9.60;99.90
40077;DHT22;25777;47.824;18.982;2024-03-02T12:49:21;9.60;99.90
40077;DHT22;25777;47.824;18.982;2024-03-02T12:51:49;9.70;99.90
40077;DHT22;25777;47.824;18.982;2024-03-02T12:54:21;9.70;99.90
40077;DHT22;25777;47.824;18.982;2024-03-02T12:56:51;9.70;99.90
40077;DHT22;25777;47.824;18.982;2024-03-02T12:59:20;9.70;99.90
40077;DHT22;25777;47.824;18.982;2024-03-02T13:01:57;9.60;99.90
40077;DHT22;25777;47.824;18.982;2024-03-02T13:04:25;9.70;99.90
40077;DHT22;25777;47.824;18.982;2024-03-02T13:06:52;9.60;99.90
40077;DHT22;25777;47.824;18.982;2024-03-02T13:09:20;9.70;99.90
40077;DHT22;25777;47.824;18.982;2024-03-02T13:11:48;9.70;99.90
40077;DHT22;25777;47.824;18.982;2024-03-02T13:14:16;9.60;99.90
40077;DHT22;25777;47.824;18.982;2024-03-02T13:16:44;9.60;99.90
40077;DHT22;25777;47.824;18.982;2024-03-02T13:19:13;9.70;99.90
40077;DHT22;25777;47.824;18.982;2024-03-02T13:21:40;9.60;99.90
40077;DHT22;25777;47.824;18.982;2024-03-02T13:24:07;9.60;99.90
40077;DHT22;25777;47.824;18.982;2024-03-02T13:26:34;9.60;99.90
40077;DHT22;25777;47.824;18.982;2024-03-02T13:29:01;9.60;99.90
40077;DHT22;25777;47.824;18.982;2024-03-02T13:31:28;9.60;99.90
40077;DHT22;25777;47.824;18.982;2024-03-02T13:33:56;9.60;99.90
40077;DHT22;25777;47.824;18.982;2024-03-02T13:36:23;9.60;99.90
40077;DHT22;25777;47.824;18.982;2024-03-02T13:38:50;9.60;99.90
40077;DHT22;25777;47.824;18.982;2024-03-02T13:41:17;9.60;99.90
40077;DHT22;25777;47.824;18.982;2024-03-02T13:43:44;9.20;99.90
40077;DHT22;25777;47.824;18.982;2024-03-02T13:46:11;9.60;99.90
40077;DHT22;25777;47.824;18.982;2024-03-02T13:48:38;9.60;99.90
40077;DHT22;25777;47.824;18.982;2024-03-02T13:51:06;9.60;99.90
40077;DHT22;25777;47.824;18.982;2024-03-02T13:53:34;9.50;99.90
40077;DHT22;25777;47.824;18.982;2024-03-02T13:56:02;9.40;99.90
40077;DHT22;25777;47.824;18.982;2024-03-02T13:58:29;9.50;99.90
40077;DHT22;25777;47.824;18.982;2024-03-02T14:00:55;9.80;99.90
40077;DHT22;25777;47.824;18.982;2024-03-02T14:03:23;9.50;99.90
40077;DHT22;25777;47.824;18.982;2024-03-02T14:05:49;9.50;99.90
40077;DHT22;25777;47.824;18.982;2024-03-02T14:08:18;9.40;99.90
40077;DHT22;25777;47.824;18.982;2024-03-02T14:10:46;9.40;99.90
40077;DHT22;25777;47.824;18.982;2024-03-02T14:13:13;9.40;99.90
40077;DHT22;25777;47.824;18.982;2024-03-02T14:15:41;9.40;99.90
40077;DHT22;25777;47.824;18.982;2024-03-02T14:18:08;9.50;99.90
40077;DHT22;25777;47.824;18.982;2024-03-02T14:20:37;9.50;99.90
40077;DHT22;25777;47.824;18.982;2024-03-02T14:23:04;9.40;99.90
40077;DHT22;25777;47.824;18.982;2024-03-02T14:25:31;9.60;99.90
40077;DHT22;25777;47.824;18.982;2024-03-02T14:28:00;9.40;99.90
40077;DHT22;25777;47.824;18.982;2024-03-02T14:30:27;9.50;99.90
40077;DHT22;25777;47.824;18.982;2024-03-02T14:32:53;9.50;99.90
40077;DHT22;25777;47.824;18.982;2024-03-02T14:35:20;9.50;99.90
40077;DHT22;25777;47.824;18.982;2024-03-02T14:37:48;9.50;99.90
40077;DHT22;25777;47.824;18.982;2024-03-02T14:40:15;9.50;99.90
40077;DHT22;25777;47.824;18.982;2024-03-02T14:42:42;9.50;99.90
40077;DHT22;25777;47.824;18.982;2024-03-02T14:45:13;9.50;99.90
40077;DHT22;25777;47.824;18.982;2024-03-02T14:47:40;9.50;99.90
40077;DHT22;25777;47.824;18.982;2024-03-02T14:50:06;9.50;99.90
40077;DHT22;25777;47.824;18.982;2024-03-02T14:52:35;9.50;99.90
40077;DHT22;25777;47.824;18.982;2024-03-02T14:55:02;9.50;99.90
40077;DHT22;25777;47.824;18.982;2024-03-02T14:57:30;9.50;99.90
40077;DHT22;25777;47.824;18.982;2024-03-02T14:59:57;9.60;99.90
40077;DHT22;25777;47.824;18.982;2024-03-02T15:02:23;9.50;99.90
40077;DHT22;25777;47.824;18.982;2024-03-02T15:04:50;9.50;99.90
40077;DHT22;25777;47.824;18.982;2024-03-02T15:07:17;9.50;99.90
40077;DHT22;25777;47.824;18.982;2024-03-02T15:09:44;9.40;99.90
40077;DHT22;25777;47.824;18.982;2024-03-02T15:12:10;9.40;99.90
40077;DHT22;25777;47.824;18.982;2024-03-02T15:14:39;9.40;99.90
40077;DHT22;25777;47.824;18.982;2024-03-02T15:17:13;9.40;99.90
40077;DHT22;25777;47.824;18.982;2024-03-02T15:19:44;9.40;99.90
40077;DHT22;25777;47.824;18.982;2024-03-02T15:22:12;9.40;99.90
40077;DHT22;25777;47.824;18.982;2024-03-02T15:24:39;9.40;99.90
40077;DHT22;25777;47.824;18.982;2024-03-02T15:27:07;9.40;99.90
40077;DHT22;25777;47.824;18.982;2024-03-02T15:29:34;9.50;99.90
40077;DHT22;25777;47.824;18.982;2024-03-02T15:32:02;9.10;99.90
40077;DHT22;25777;47.824;18.982;2024-03-02T15:34:31;9.40;99.90
40077;DHT22;25777;47.824;18.982;2024-03-02T15:36:58;9.50;99.90
40077;DHT22;25777;47.824;18.982;2024-03-02T15:39:26;9.40;99.90
40077;DHT22;25777;47.824;18.982;2024-03-02T15:41:53;9.50;99.90
40077;DHT22;25777;47.824;18.982;2024-03-02T15:44:20;9.40;99.90
40077;DHT22;25777;47.824;18.982;2024-03-02T15:46:47;9.40;99.90
40077;DHT22;25777;47.824;18.982;2024-03-02T15:49:14;9.40;99.90